| time (UTC) | temp C | wind direction | speed KPH | gust KPH | rain 1hr cm | rain 24hr cm | rain mn cm | humidity % | barometer mb |
| 20260506204903 | 16 | 237 | 8.0 | 16.1 | 0.00 | 0.38 | 0.38 | 90 | 1004.6 |
| 20260506204404 | 16 | 220 | 4.8 | 9.7 | 0.00 | 0.38 | 0.38 | 90 | 1004.6 |
| 20260506203904 | 16 | 225 | 4.8 | 14.5 | 0.00 | 0.38 | 0.38 | 90 | 1004.6 |
| 20260506203405 | 16 | 227 | 8.0 | 14.5 | 0.00 | 0.38 | 0.38 | 90 | 1004.6 |
| 20260506202903 | 16 | 232 | 8.0 | 12.9 | 0.00 | 0.38 | 0.38 | 90 | 1004.6 |
| 20260506202404 | 16 | 201 | 4.8 | 11.3 | 0.00 | 0.38 | 0.38 | 90 | 1004.6 |
| 20260506192404 | 16 | 230 | 8.0 | 19.3 | 0.03 | 0.38 | 0.38 | 91 | 1005.2 |
| 20260506191904 | 16 | 229 | 4.8 | 12.9 | 0.03 | 0.38 | 0.38 | 91 | 1005.1 |
| 20260506191404 | 16 | 227 | 4.8 | 19.3 | 0.03 | 0.38 | 0.38 | 91 | 1005.1 |
| 20260506190904 | 16 | 224 | 6.4 | 16.1 | 0.03 | 0.38 | 0.38 | 92 | 1005.1 |
| 20260506190404 | 16 | 241 | 4.8 | 12.9 | 0.03 | 0.38 | 0.38 | 92 | 1005.1 |
| 20260506185904 | 16 | 248 | 6.4 | 11.3 | 0.03 | 0.38 | 0.38 | 92 | 1005.1 |
| 20260506185404 | 16 | 239 | 4.8 | 14.5 | 0.03 | 0.38 | 0.38 | 92 | 1005.2 |
| 20260506184904 | 16 | 236 | 8.0 | 19.3 | 0.05 | 0.38 | 0.38 | 92 | 1005.3 |
| 20260506184404 | 16 | 252 | 8.0 | 16.1 | 0.05 | 0.38 | 0.38 | 92 | 1005.3 |
| 20260506182921 | 16 | 243 | 4.8 | 11.3 | 0.03 | 0.36 | 0.36 | 92 | 1005.5 |
| 20260506180905 | 16 | 237 | 4.8 | 9.7 | 0.03 | 0.36 | 0.36 | 92 | 1005.6 |
| 20260506180405 | 16 | 208 | 4.8 | 8.0 | 0.05 | 0.36 | 0.36 | 92 | 1005.6 |
| 20260506175905 | 16 | 234 | 3.2 | 11.3 | 0.05 | 0.36 | 0.36 | 92 | 1005.6 |
| 20260506175405 | 16 | 228 | 4.8 | 12.9 | 0.08 | 0.36 | 0.36 | 92 | 1005.6 |
| 20260506174908 | 16 | 230 | 8.0 | 19.3 | 0.05 | 0.33 | 0.33 | 92 | 1005.7 |
| 20260506174407 | 16 | 209 | 4.8 | 11.3 | 0.08 | 0.33 | 0.33 | 92 | 1005.7 |
| 20260506173907 | 16 | 242 | 3.2 | 14.5 | 0.10 | 0.33 | 0.33 | 92 | 1005.6 |
| 20260506173406 | 16 | 222 | 4.8 | 20.9 | 0.13 | 0.33 | 0.33 | 92 | 1005.6 |
| 20260506172911 | 16 | 197 | 3.2 | 9.7 | 0.15 | 0.33 | 0.33 | 92 | 1005.7 |
| 20260506172407 | 16 | 246 | 1.6 | 8.0 | 0.18 | 0.33 | 0.33 | 92 | 1005.8 |
| 20260506171404 | 16 | 190 | 4.8 | 12.9 | 0.20 | 0.33 | 0.33 | 92 | 1005.8 |
| 20260506170906 | 16 | 227 | 4.8 | 12.9 | 0.20 | 0.33 | 0.33 | 91 | 1005.9 |
| 20260506170407 | 16 | 234 | 1.6 | 4.8 | 0.20 | 0.30 | 0.30 | 91 | 1006.0 |
| 20260506165907 | 16 | 205 | 3.2 | 8.0 | 0.23 | 0.30 | 0.30 | 91 | 1006.1 |
| 20260506164906 | 16 | 227 | 4.8 | 12.9 | 0.23 | 0.28 | 0.28 | 91 | 1006.3 |
| 20260506164406 | 16 | 209 | 3.2 | 9.7 | 0.20 | 0.25 | 0.25 | 91 | 1006.3 |
| 20260506163904 | 16 | 190 | 3.2 | 8.0 | 0.20 | 0.23 | 0.23 | 90 | 1006.5 |
| 20260506163404 | 16 | 222 | 4.8 | 14.5 | 0.18 | 0.20 | 0.20 | 90 | 1006.6 |
| 20260506162419 | 16 | 211 | 3.2 | 9.7 | 0.13 | 0.15 | 0.15 | 90 | 1006.7 |
| 20260506161403 | 16 | 224 | 4.8 | 16.1 | 0.10 | 0.13 | 0.13 | 89 | 1006.7 |
| 20260506160904 | 16 | 235 | 4.8 | 12.9 | 0.13 | 0.13 | 0.13 | 89 | 1006.8 |
| 20260506160403 | 16 | 202 | 3.2 | 16.1 | 0.10 | 0.10 | 0.10 | 89 | 1006.8 |
| 20260506155912 | 16 | 242 | 3.2 | 8.0 | 0.08 | 0.08 | 0.08 | 88 | 1006.9 |
| 20260506155407 | 17 | 244 | 3.2 | 8.0 | 0.08 | 0.08 | 0.08 | 88 | 1007.0 |
| 20260506154908 | 17 | 237 | 3.2 | 8.0 | 0.05 | 0.05 | 0.05 | 87 | 1006.9 |
| 20260506153903 | 17 | 233 | 4.8 | 8.0 | 0.03 | 0.03 | 0.03 | 86 | 1006.9 |
| 20260506153404 | 17 | 218 | 3.2 | 9.7 | 0.03 | 0.03 | 0.03 | 86 | 1007.0 |
| 20260506152906 | 17 | 244 | 4.8 | 12.9 | 0.03 | 0.03 | 0.03 | 85 | 1006.9 |
| 20260506152406 | 17 | 228 | 3.2 | 9.7 | 0.03 | 0.03 | 0.03 | 85 | 1006.8 |
| 20260506151904 | 17 | 223 | 3.2 | 9.7 | 0.03 | 0.03 | 0.03 | 84 | 1006.8 |
| 20260506151403 | 17 | 216 | 8.0 | 16.1 | 0.03 | 0.03 | 0.03 | 83 | 1006.9 |
| 20260506150405 | 17 | 224 | 3.2 | 8.0 | 0.00 | 0.00 | 0.00 | 82 | 1007.0 |
| 20260506145904 | 17 | 235 | 3.2 | 8.0 | 0.00 | 0.00 | 0.00 | 81 | 1007.0 |
| 20260506145403 | 18 | 244 | 4.8 | 11.3 | 0.00 | 0.00 | 0.00 | 80 | 1007.1 |
| 20260506144904 | 18 | 217 | 3.2 | 11.3 | 0.00 | 0.00 | 0.00 | 80 | 1007.2 |
| 20260506144404 | 18 | 241 | 4.8 | 11.3 | 0.00 | 0.00 | 0.00 | 79 | 1007.2 |
| 20260506143904 | 18 | 238 | 3.2 | 9.7 | 0.00 | 0.00 | 0.00 | 78 | 1007.3 |
| 20260506142904 | 18 | 273 | 3.2 | 9.7 | 0.00 | 0.00 | 0.00 | 77 | 1007.4 |
| 20260506142404 | 18 | 246 | 6.4 | 14.5 | 0.00 | 0.00 | 0.00 | 77 | 1007.5 |
| 20260506141903 | 18 | 235 | 3.2 | 14.5 | 0.00 | 0.00 | 0.00 | 76 | 1007.4 |
| 20260506141404 | 18 | 241 | 6.4 | 14.5 | 0.00 | 0.00 | 0.00 | 76 | 1007.5 |
| 20260506140904 | 18 | 214 | 3.2 | 14.5 | 0.00 | 0.00 | 0.00 | 76 | 1007.5 |
| 20260506140405 | 18 | 239 | 4.8 | 9.7 | 0.00 | 0.00 | 0.00 | 76 | 1007.4 |
| 20260506135904 | 18 | 200 | 6.4 | 11.3 | 0.00 | 0.00 | 0.00 | 76 | 1007.3 |
| 20260506135404 | 18 | 244 | 3.2 | 12.9 | 0.00 | 0.00 | 0.00 | 76 | 1007.4 |
| 20260506134907 | 18 | 218 | 4.8 | 16.1 | 0.00 | 0.00 | 0.00 | 76 | 1007.2 |
| 20260506134404 | 18 | 195 | 4.8 | 11.3 | 0.00 | 0.00 | 0.00 | 76 | 1007.0 |
| 20260506133904 | 18 | 210 | 3.2 | 19.3 | 0.00 | 0.00 | 0.00 | 76 | 1007.0 |
| 20260506133406 | 18 | 219 | 4.8 | 16.1 | 0.00 | 0.00 | 0.00 | 76 | 1006.9 |
| 20260506132903 | 18 | 241 | 4.8 | 12.9 | 0.00 | 0.00 | 0.00 | 76 | 1007.0 |
| 20260506132404 | 18 | 237 | 3.2 | 11.3 | 0.00 | 0.00 | 0.00 | 76 | 1007.0 |
| 20260506131909 | 18 | 239 | 6.4 | 16.1 | 0.00 | 0.00 | 0.00 | 76 | 1006.8 |
| 20260506131404 | 18 | 226 | 4.8 | 11.3 | 0.00 | 0.00 | 0.00 | 77 | 1006.8 |
| 20260506130905 | 18 | 211 | 6.4 | 12.9 | 0.00 | 0.00 | 0.00 | 77 | 1006.8 |
| 20260506125903 | 17 | 247 | 4.8 | 9.7 | 0.00 | 0.00 | 0.00 | 78 | 1007.0 |
| 20260506125405 | 17 | 230 | 3.2 | 11.3 | 0.00 | 0.00 | 0.00 | 78 | 1006.9 |
| 20260506124904 | 17 | 127 | 3.2 | 9.7 | 0.00 | 0.00 | 0.00 | 78 | 1007.0 |
| 20260506124404 | 17 | 227 | 3.2 | 8.0 | 0.00 | 0.00 | 0.00 | 78 | 1007.1 |
| 20260506123904 | 17 | 207 | 4.8 | 9.7 | 0.00 | 0.00 | 0.00 | 78 | 1007.3 |
| 20260506123404 | 17 | 158 | 1.6 | 4.8 | 0.00 | 0.00 | 0.00 | 78 | 1007.4 |
| 20260506122905 | 17 | 223 | 3.2 | 9.7 | 0.00 | 0.00 | 0.00 | 78 | 1007.4 |
| 20260506121904 | 17 | 225 | 3.2 | 8.0 | 0.00 | 0.00 | 0.00 | 78 | 1007.7 |
| 20260506121404 | 17 | 232 | 8.0 | 12.9 | 0.00 | 0.00 | 0.00 | 78 | 1007.8 |
| 20260506120904 | 17 | 254 | 4.8 | 19.3 | 0.00 | 0.00 | 0.00 | 78 | 1007.7 |
| 20260506120405 | 17 | 219 | 4.8 | 16.1 | 0.00 | 0.00 | 0.00 | 78 | 1007.7 |
| 20260506115904 | 17 | 182 | 4.8 | 12.9 | 0.00 | 0.00 | 0.00 | 78 | 1007.5 |
| 20260506115405 | 17 | 218 | 4.8 | 9.7 | 0.00 | 0.00 | 0.00 | 77 | 1007.5 |
| 20260506114904 | 17 | 242 | 6.4 | 14.5 | 0.00 | 0.00 | 0.00 | 77 | 1007.4 |
| 20260506114403 | 17 | 215 | 4.8 | 16.1 | 0.00 | 0.00 | 0.00 | 77 | 1007.4 |
| 20260506113904 | 17 | 213 | 6.4 | 16.1 | 0.00 | 0.00 | 0.00 | 78 | 1007.4 |
| 20260506113404 | 17 | 231 | 4.8 | 12.9 | 0.00 | 0.00 | 0.00 | 77 | 1007.4 |
| 20260506111426 | 17 | 215 | 4.8 | 12.9 | 0.00 | 0.00 | 0.00 | 78 | 1007.3 |
| 20260506105904 | 16 | 239 | 4.8 | 14.5 | 0.00 | 0.00 | 0.00 | 80 | 1007.1 |
| 20260506105404 | 16 | 219 | 3.2 | 9.7 | 0.00 | 0.00 | 0.00 | 81 | 1006.9 |
| 20260506104911 | 16 | 225 | 4.8 | 11.3 | 0.00 | 0.00 | 0.00 | 83 | 1007.0 |
| 20260506103904 | 15 | 209 | 4.8 | 25.7 | 0.00 | 0.00 | 0.00 | 88 | 1007.0 |
| 20260506101908 | 13 | 244 | 3.2 | 4.8 | 0.00 | 0.00 | 0.00 | 92 | 1007.2 |
| 20260506101408 | 12 | 243 | 3.2 | 4.8 | 0.00 | 0.00 | 0.00 | 92 | 1007.1 |
| 20260506100915 | 12 | 297 | 1.6 | 4.8 | 0.00 | 0.00 | 0.00 | 92 | 1007.1 |
| 20260506094422 | 12 | 338 | 1.6 | 3.2 | 0.00 | 0.00 | 0.00 | 91 | 1007.0 |
| 20260506093411 | 12 | 338 | 0.0 | 3.2 | 0.00 | 0.00 | 0.00 | 91 | 1006.9 |
| 20260506092913 | 12 | 338 | 0.0 | 1.6 | 0.00 | 0.00 | 0.00 | 91 | 1006.9 |
| 20260506092419 | 12 | 338 | 0.0 | 1.6 | 0.00 | 0.00 | 0.00 | 91 | 1007.0 |
| 20260506091925 | 12 | 338 | 1.6 | 3.2 | 0.00 | 0.00 | 0.00 | 90 | 1006.9 |
| 20260506091409 | 13 | 338 | 1.6 | 1.6 | 0.00 | 0.00 | 0.00 | 90 | 1006.9 |
| 20260506090907 | 13 | 338 | 0.0 | 0.0 | 0.00 | 0.00 | 0.00 | 90 | 1007.0 |
| 20260506090407 | 13 | 338 | 0.0 | 0.0 | 0.00 | 0.00 | 0.00 | 90 | 1006.9 |
| 20260506085911 | 13 | 338 | 0.0 | 0.0 | 0.00 | 0.00 | 0.00 | 90 | 1007.0 |
| 20260506085408 | 13 | 338 | 0.0 | 0.0 | 0.00 | 0.00 | 0.00 | 90 | 1007.1 |
| 20260506084906 | 13 | 338 | 0.0 | 1.6 | 0.00 | 0.00 | 0.00 | 90 | 1007.2 |
| 20260506084405 | 13 | 338 | 1.6 | 1.6 | 0.00 | 0.00 | 0.00 | 90 | 1007.3 |
| 20260506083909 | 13 | 338 | 0.0 | 1.6 | 0.00 | 0.00 | 0.00 | 89 | 1007.3 |
| 20260506083408 | 13 | 338 | 1.6 | 1.6 | 0.00 | 0.00 | 0.00 | 89 | 1007.3 |
| 20260506082916 | 13 | 338 | 0.0 | 1.6 | 0.00 | 0.00 | 0.00 | 89 | 1007.2 |
| 20260506082422 | 13 | 338 | 0.0 | 0.0 | 0.00 | 0.00 | 0.00 | 89 | 1007.2 |
| 20260506081910 | 13 | 338 | 0.0 | 0.0 | 0.00 | 0.00 | 0.00 | 89 | 1007.2 |
| 20260506081404 | 13 | 338 | 0.0 | 0.0 | 0.00 | 0.00 | 0.00 | 88 | 1007.2 |
| 20260506080904 | 13 | 338 | 0.0 | 1.6 | 0.00 | 0.00 | 0.00 | 88 | 1007.2 |
| 20260506080404 | 14 | 338 | 1.6 | 3.2 | 0.00 | 0.00 | 0.00 | 88 | 1007.3 |
| 20260506073404 | 14 | 338 | 0.0 | 0.0 | 0.00 | 0.00 | 0.00 | 86 | 1007.6 |
| 20260506072904 | 15 | 338 | 0.0 | 3.2 | 0.00 | 0.00 | 0.00 | 86 | 1007.6 |
| 20260506072403 | 15 | 338 | 0.0 | 1.6 | 0.00 | 0.00 | 0.00 | 86 | 1007.7 |
| 20260506071404 | 15 | 338 | 0.0 | 1.6 | 0.00 | 0.00 | 0.00 | 85 | 1007.9 |
| 20260506070903 | 15 | 338 | 0.0 | 1.6 | 0.00 | 0.00 | 0.00 | 85 | 1007.9 |
| 20260506070404 | 15 | 338 | 0.0 | 1.6 | 0.00 | 0.00 | 0.00 | 85 | 1008.0 |
| 20260506061905 | 15 | 339 | 1.6 | 3.2 | 0.00 | 0.00 | 0.00 | 84 | 1008.5 |
| 20260506061404 | 15 | 341 | 1.6 | 4.8 | 0.00 | 0.00 | 0.00 | 83 | 1008.3 |
| 20260506060905 | 15 | 301 | 1.6 | 4.8 | 0.00 | 0.00 | 0.00 | 83 | 1008.3 |
| 20260506051403 | 16 | 295 | 1.6 | 3.2 | 0.00 | 0.00 | 0.00 | 80 | 1008.6 |
| 20260506050905 | 16 | 295 | 1.6 | 3.2 | 0.00 | 0.00 | 0.00 | 79 | 1008.5 |
| 20260506050403 | 16 | 298 | 1.6 | 4.8 | 0.00 | 0.00 | 0.00 | 79 | 1008.5 |
| 20260506044904 | 16 | 315 | 1.6 | 4.8 | 0.00 | 0.00 | 0.00 | 79 | 1008.8 |
| 20260506044403 | 17 | 28 | 1.6 | 12.9 | 0.00 | 0.00 | 0.00 | 79 | 1008.5 |
| 20260506043903 | 17 | 342 | 3.2 | 11.3 | 0.00 | 0.00 | 0.00 | 79 | 1008.6 |
| 20260506043403 | 17 | 339 | 4.8 | 14.5 | 0.00 | 0.00 | 0.00 | 78 | 1008.4 |
| 20260506042403 | 17 | 16 | 1.6 | 4.8 | 0.00 | 0.00 | 0.00 | 76 | 1008.2 |
| 20260506041904 | 17 | 346 | 3.2 | 4.8 | 0.00 | 0.00 | 0.00 | 75 | 1008.1 |
| 20260506041404 | 18 | 275 | 3.2 | 4.8 | 0.00 | 0.00 | 0.00 | 73 | 1008.1 |
| 20260506040904 | 18 | 275 | 1.6 | 1.6 | 0.00 | 0.00 | 0.00 | 72 | 1007.8 |
| 20260506040403 | 18 | 275 | 0.0 | 3.2 | 0.00 | 0.00 | 0.00 | 72 | 1007.7 |
| 20260506035904 | 18 | 275 | 3.2 | 4.8 | 0.00 | 0.00 | 0.00 | 72 | 1007.6 |
| 20260506035404 | 18 | 275 | 1.6 | 3.2 | 0.00 | 0.00 | 0.00 | 72 | 1007.6 |
| 20260506034904 | 18 | 275 | 3.2 | 3.2 | 0.00 | 0.00 | 0.00 | 71 | 1007.6 |
| 20260506033903 | 19 | 275 | 0.0 | 3.2 | 0.00 | 0.00 | 0.00 | 69 | 1007.5 |
| 20260506033404 | 19 | 275 | 1.6 | 3.2 | 0.00 | 0.00 | 0.00 | 67 | 1007.4 |
| 20260506032904 | 20 | 275 | 1.6 | 4.8 | 0.00 | 0.00 | 0.00 | 65 | 1007.5 |
| 20260506032404 | 21 | 288 | 3.2 | 11.3 | 0.00 | 0.00 | 0.00 | 60 | 1007.5 |
| 20260506031904 | 21 | 266 | 4.8 | 11.3 | 0.00 | 0.00 | 0.00 | 51 | 1007.3 |
| 20260506031404 | 21 | 246 | 4.8 | 8.0 | 0.00 | 0.00 | 0.00 | 52 | 1007.2 |
| 20260506030905 | 20 | 233 | 3.2 | 11.3 | 0.00 | 0.00 | 0.00 | 55 | 1007.2 |
| 20260506030404 | 20 | 242 | 3.2 | 11.3 | 0.00 | 0.00 | 0.00 | 59 | 1007.1 |
| 20260506025906 | 19 | 249 | 3.2 | 4.8 | 0.00 | 0.00 | 0.00 | 63 | 1007.2 |
| 20260506025404 | 18 | 197 | 3.2 | 4.8 | 0.00 | 0.00 | 0.00 | 65 | 1007.2 |
| 20260506024403 | 18 | 290 | 0.0 | 3.2 | 0.00 | 0.00 | 0.00 | 73 | 1007.1 |
| 20260506023904 | 18 | 290 | 1.6 | 3.2 | 0.00 | 0.00 | 0.00 | 73 | 1007.1 |
| 20260506023403 | 18 | 290 | 1.6 | 3.2 | 0.00 | 0.00 | 0.00 | 74 | 1007.1 |
| 20260506022904 | 18 | 290 | 1.6 | 3.2 | 0.00 | 0.00 | 0.00 | 74 | 1007.1 |
| 20260506022405 | 18 | 290 | 1.6 | 3.2 | 0.00 | 0.00 | 0.00 | 74 | 1007.2 |
| 20260506021904 | 18 | 290 | 3.2 | 3.2 | 0.00 | 0.00 | 0.00 | 74 | 1007.3 |
| 20260506021404 | 18 | 290 | 1.6 | 4.8 | 0.00 | 0.00 | 0.00 | 74 | 1007.3 |
| 20260506020905 | 18 | 290 | 3.2 | 3.2 | 0.00 | 0.00 | 0.00 | 74 | 1007.4 |
| 20260506020403 | 18 | 290 | 1.6 | 3.2 | 0.00 | 0.00 | 0.00 | 73 | 1007.5 |
| 20260506015904 | 18 | 290 | 1.6 | 3.2 | 0.00 | 0.00 | 0.00 | 73 | 1007.5 |
| 20260506015404 | 18 | 290 | 0.0 | 4.8 | 0.00 | 0.00 | 0.00 | 72 | 1007.6 |
| 20260506014903 | 18 | 288 | 1.6 | 4.8 | 0.00 | 0.00 | 0.00 | 71 | 1007.5 |
| 20260506013903 | 18 | 73 | 1.6 | 3.2 | 0.00 | 0.00 | 0.00 | 69 | 1007.3 |
| 20260506013404 | 19 | 97 | 1.6 | 1.6 | 0.00 | 0.00 | 0.00 | 69 | 1007.2 |
| 20260506011404 | 18 | 97 | 1.6 | 3.2 | 0.00 | 0.00 | 0.00 | 69 | 1006.9 |
| 20260506010904 | 18 | 97 | 1.6 | 3.2 | 0.00 | 0.00 | 0.00 | 69 | 1006.9 |
| 20260506005903 | 18 | 97 | 0.0 | 3.2 | 0.00 | 0.00 | 0.00 | 70 | 1006.9 |
| 20260506005403 | 18 | 97 | 3.2 | 4.8 | 0.00 | 0.00 | 0.00 | 70 | 1006.7 |
| 20260506004903 | 18 | 97 | 1.6 | 4.8 | 0.00 | 0.00 | 0.00 | 70 | 1006.8 |
| 20260506004403 | 18 | 97 | 3.2 | 9.7 | 0.00 | 0.00 | 0.00 | 70 | 1006.7 |
| 20260506003905 | 18 | 93 | 3.2 | 4.8 | 0.00 | 0.00 | 0.00 | 70 | 1006.7 |
| 20260506003404 | 18 | 93 | 3.2 | 4.8 | 0.00 | 0.00 | 0.00 | 70 | 1006.6 |
| 20260506002904 | 18 | 93 | 1.6 | 3.2 | 0.00 | 0.00 | 0.00 | 70 | 1006.6 |
| 20260506002403 | 19 | 93 | 1.6 | 4.8 | 0.00 | 0.00 | 0.00 | 70 | 1006.6 |
| 20260506001904 | 19 | 92 | 3.2 | 4.8 | 0.00 | 0.00 | 0.00 | 70 | 1006.7 |
| 20260506000903 | 19 | 93 | 0.0 | 1.6 | 0.00 | 0.00 | 0.00 | 69 | 1006.7 |
| 20260506000405 | 19 | 93 | 0.0 | 3.2 | 0.00 | 0.00 | 0.00 | 69 | 1006.5 |
| 20260505235904 | 19 | 93 | 1.6 | 3.2 | 0.00 | 0.00 | 0.00 | 69 | 1006.4 |
| 20260505235404 | 19 | 93 | 1.6 | 4.8 | 0.00 | 0.00 | 0.00 | 69 | 1006.4 |
| 20260505233904 | 19 | 90 | 1.6 | 4.8 | 0.00 | 0.00 | 0.00 | 69 | 1006.2 |
| 20260505233404 | 19 | 96 | 1.6 | 4.8 | 0.00 | 0.00 | 0.00 | 69 | 1006.3 |
| 20260505232904 | 19 | 99 | 4.8 | 4.8 | 0.00 | 0.00 | 0.00 | 69 | 1006.3 |
| 20260505232404 | 19 | 101 | 3.2 | 4.8 | 0.00 | 0.00 | 0.00 | 68 | 1006.3 |
| 20260505231904 | 20 | 107 | 1.6 | 4.8 | 0.00 | 0.00 | 0.00 | 67 | 1006.4 |
| 20260505231404 | 20 | 255 | 1.6 | 4.8 | 0.00 | 0.00 | 0.00 | 67 | 1006.3 |
| 20260505230904 | 20 | 266 | 3.2 | 3.2 | 0.00 | 0.00 | 0.00 | 67 | 1006.1 |
| 20260505230403 | 20 | 266 | 1.6 | 4.8 | 0.00 | 0.00 | 0.00 | 66 | 1006.3 |
| 20260505225904 | 20 | 100 | 3.2 | 4.8 | 0.00 | 0.00 | 0.00 | 64 | 1006.1 |
| 20260505224905 | 21 | 343 | 3.2 | 8.0 | 0.00 | 0.00 | 0.00 | 60 | 1006.2 |
| 20260505222904 | 25 | 349 | 9.7 | 16.1 | 0.00 | 0.00 | 0.00 | 42 | 1006.0 |
| 20260505222404 | 26 | 295 | 8.0 | 19.3 | 0.00 | 0.00 | 0.00 | 34 | 1005.6 |
| 20260505221904 | 26 | 249 | 8.0 | 20.9 | 0.00 | 0.00 | 0.00 | 32 | 1004.9 |
| 20260505221405 | 26 | 259 | 6.4 | 14.5 | 0.00 | 0.00 | 0.00 | 32 | 1004.8 |
| 20260505215904 | 26 | 241 | 9.7 | 19.3 | 0.00 | 0.00 | 0.00 | 31 | 1004.5 |
| 20260505215403 | 26 | 260 | 8.0 | 24.1 | 0.00 | 0.00 | 0.00 | 31 | 1004.5 |
| 20260505214904 | 26 | 238 | 12.9 | 20.9 | 0.00 | 0.00 | 0.00 | 31 | 1004.4 |
| 20260505214404 | 26 | 232 | 9.7 | 19.3 | 0.00 | 0.00 | 0.00 | 31 | 1004.2 |
| 20260505213903 | 26 | 247 | 8.0 | 16.1 | 0.00 | 0.00 | 0.00 | 32 | 1004.2 |
| 20260505213405 | 26 | 240 | 9.7 | 19.3 | 0.00 | 0.00 | 0.00 | 31 | 1004.1 |
| 20260505212904 | 27 | 241 | 11.3 | 19.3 | 0.00 | 0.00 | 0.00 | 31 | 1004.0 |
| 20260505211404 | 27 | 258 | 11.3 | 27.4 | 0.00 | 0.00 | 0.00 | 31 | 1003.9 |
| 20260505210904 | 27 | 265 | 12.9 | 25.7 | 0.00 | 0.00 | 0.00 | 30 | 1003.8 |
| 20260505210404 | 27 | 244 | 11.3 | 19.3 | 0.00 | 0.00 | 0.00 | 31 | 1003.7 |
| 20260505205904 | 27 | 262 | 12.9 | 29.0 | 0.00 | 0.00 | 0.00 | 31 | 1003.7 |
| 20260505205404 | 27 | 237 | 12.9 | 27.4 | 0.00 | 0.00 | 0.00 | 31 | 1003.7 |